sensor_id;sensor_type;location;lat;lon;timestamp;temperature;humidity
52034;DHT22;38045;52.988;6.536;2023-08-07T00:00:33;15.10;99.90
52034;DHT22;38045;52.988;6.536;2023-08-07T00:02:58;15.20;99.90
52034;DHT22;38045;52.988;6.536;2023-08-07T00:05:24;15.10;99.90
52034;DHT22;38045;52.988;6.536;2023-08-07T00:07:50;15.10;99.90
52034;DHT22;38045;52.988;6.536;2023-08-07T00:10:15;15.10;99.90
52034;DHT22;38045;52.988;6.536;2023-08-07T00:12:41;15.10;99.90
52034;DHT22;38045;52.988;6.536;2023-08-07T00:15:09;15.10;99.90
52034;DHT22;38045;52.988;6.536;2023-08-07T00:17:34;15.10;99.90
52034;DHT22;38045;52.988;6.536;2023-08-07T00:20:00;15.10;99.90
52034;DHT22;38045;52.988;6.536;2023-08-07T00:22:25;15.10;99.90
52034;DHT22;38045;52.988;6.536;2023-08-07T00:24:51;15.00;99.90
52034;DHT22;38045;52.988;6.536;2023-08-07T00:27:17;15.00;99.90
52034;DHT22;38045;52.988;6.536;2023-08-07T00:29:42;15.00;99.90
52034;DHT22;38045;52.988;6.536;2023-08-07T00:32:08;15.00;99.90
52034;DHT22;38045;52.988;6.536;2023-08-07T00:34:34;15.00;99.90
52034;DHT22;38045;52.988;6.536;2023-08-07T00:36:59;14.90;99.90
52034;DHT22;38045;52.988;6.536;2023-08-07T00:39:25;14.90;99.90
52034;DHT22;38045;52.988;6.536;2023-08-07T00:41:51;14.90;99.90
52034;DHT22;38045;52.988;6.536;2023-08-07T00:44:16;14.80;99.90
52034;DHT22;38045;52.988;6.536;2023-08-07T00:46:42;14.80;99.90
52034;DHT22;38045;52.988;6.536;2023-08-07T00:49:09;14.80;99.90
52034;DHT22;38045;52.988;6.536;2023-08-07T00:51:37;14.80;99.90
52034;DHT22;38045;52.988;6.536;2023-08-07T00:54:04;14.80;99.90
52034;DHT22;38045;52.988;6.536;2023-08-07T00:56:31;14.70;99.90
52034;DHT22;38045;52.988;6.536;2023-08-07T00:58:58;14.70;99.90
52034;DHT22;38045;52.988;6.536;2023-08-07T01:01:24;14.60;99.90
52034;DHT22;38045;52.988;6.536;2023-08-07T01:03:50;14.60;99.90
52034;DHT22;38045;52.988;6.536;2023-08-07T01:06:16;14.60;99.90
52034;DHT22;38045;52.988;6.536;2023-08-07T01:08:42;14.50;99.90
52034;DHT22;38045;52.988;6.536;2023-08-07T01:16:37;14.40;99.90
52034;DHT22;38045;52.988;6.536;2023-08-07T01:19:09;14.40;99.90
52034;DHT22;38045;52.988;6.536;2023-08-07T01:21:37;14.40;99.90
52034;DHT22;38045;52.988;6.536;2023-08-07T01:24:03;14.40;99.90
52034;DHT22;38045;52.988;6.536;2023-08-07T01:26:29;14.30;99.90
52034;DHT22;38045;52.988;6.536;2023-08-07T01:29:19;14.30;99.90
52034;DHT22;38045;52.988;6.536;2023-08-07T01:31:48;14.30;99.90
52034;DHT22;38045;52.988;6.536;2023-08-07T01:34:17;14.30;99.90
52034;DHT22;38045;52.988;6.536;2023-08-07T01:36:45;14.30;99.90
52034;DHT22;38045;52.988;6.536;2023-08-07T01:39:12;14.30;99.90
52034;DHT22;38045;52.988;6.536;2023-08-07T01:41:41;14.30;99.90
52034;DHT22;38045;52.988;6.536;2023-08-07T01:44:06;14.30;99.90
52034;DHT22;38045;52.988;6.536;2023-08-07T01:46:32;14.30;99.90
52034;DHT22;38045;52.988;6.536;2023-08-07T01:48:58;14.30;99.90
52034;DHT22;38045;52.988;6.536;2023-08-07T01:51:23;14.30;99.90
52034;DHT22;38045;52.988;6.536;2023-08-07T01:53:49;14.40;99.90
52034;DHT22;38045;52.988;6.536;2023-08-07T01:56:15;14.30;99.90
52034;DHT22;38045;52.988;6.536;2023-08-07T01:58:40;14.30;99.90
52034;DHT22;38045;52.988;6.536;2023-08-07T02:01:06;14.30;99.90
52034;DHT22;38045;52.988;6.536;2023-08-07T02:03:32;14.40;99.90
52034;DHT22;38045;52.988;6.536;2023-08-07T02:05:57;14.30;99.90
52034;DHT22;38045;52.988;6.536;2023-08-07T02:08:23;14.30;99.90
52034;DHT22;38045;52.988;6.536;2023-08-07T02:10:48;14.30;99.90
52034;DHT22;38045;52.988;6.536;2023-08-07T02:13:14;14.30;99.90
52034;DHT22;38045;52.988;6.536;2023-08-07T02:15:40;14.30;99.90
52034;DHT22;38045;52.988;6.536;2023-08-07T02:18:06;14.30;99.90
52034;DHT22;38045;52.988;6.536;2023-08-07T02:20:31;14.30;99.90
52034;DHT22;38045;52.988;6.536;2023-08-07T02:22:57;14.30;99.90
52034;DHT22;38045;52.988;6.536;2023-08-07T02:25:22;14.30;99.90
52034;DHT22;38045;52.988;6.536;2023-08-07T02:27:48;14.20;99.90
52034;DHT22;38045;52.988;6.536;2023-08-07T02:30:14;14.20;99.90
52034;DHT22;38045;52.988;6.536;2023-08-07T02:32:39;14.20;99.90
52034;DHT22;38045;52.988;6.536;2023-08-07T02:35:07;14.20;99.90
52034;DHT22;38045;52.988;6.536;2023-08-07T02:37:33;14.20;99.90
52034;DHT22;38045;52.988;6.536;2023-08-07T02:39:59;14.20;99.90
52034;DHT22;38045;52.988;6.536;2023-08-07T02:42:25;14.20;99.90
52034;DHT22;38045;52.988;6.536;2023-08-07T02:44:50;14.20;99.90
52034;DHT22;38045;52.988;6.536;2023-08-07T02:47:16;14.10;99.90
52034;DHT22;38045;52.988;6.536;2023-08-07T02:49:41;14.20;99.90
52034;DHT22;38045;52.988;6.536;2023-08-07T02:52:07;14.10;99.90
52034;DHT22;38045;52.988;6.536;2023-08-07T02:54:32;14.10;99.90
52034;DHT22;38045;52.988;6.536;2023-08-07T02:56:58;14.10;99.90
52034;DHT22;38045;52.988;6.536;2023-08-07T02:59:24;14.10;99.90
52034;DHT22;38045;52.988;6.536;2023-08-07T03:01:50;14.20;99.90
52034;DHT22;38045;52.988;6.536;2023-08-07T03:04:15;14.10;99.90
52034;DHT22;38045;52.988;6.536;2023-08-07T03:06:41;14.10;99.90
52034;DHT22;38045;52.988;6.536;2023-08-07T03:09:07;14.00;99.90
52034;DHT22;38045;52.988;6.536;2023-08-07T03:11:32;14.10;99.90
52034;DHT22;38045;52.988;6.536;2023-08-07T03:13:58;14.00;99.90
52034;DHT22;38045;52.988;6.536;2023-08-07T03:16:23;14.00;99.90
52034;DHT22;38045;52.988;6.536;2023-08-07T03:18:49;14.00;99.90
52034;DHT22;38045;52.988;6.536;2023-08-07T03:21:15;14.00;99.90
52034;DHT22;38045;52.988;6.536;2023-08-07T03:23:40;14.00;99.90
52034;DHT22;38045;52.988;6.536;2023-08-07T03:26:08;14.00;99.90
52034;DHT22;38045;52.988;6.536;2023-08-07T03:28:34;14.00;99.90
52034;DHT22;38045;52.988;6.536;2023-08-07T03:31:01;14.00;99.90
52034;DHT22;38045;52.988;6.536;2023-08-07T03:33:26;14.00;99.90
52034;DHT22;38045;52.988;6.536;2023-08-07T03:35:52;14.00;99.90
52034;DHT22;38045;52.988;6.536;2023-08-07T03:38:18;14.10;99.90
52034;DHT22;38045;52.988;6.536;2023-08-07T03:40:43;14.10;99.90
52034;DHT22;38045;52.988;6.536;2023-08-07T03:43:09;14.00;99.90
52034;DHT22;38045;52.988;6.536;2023-08-07T03:45:35;14.00;99.90
52034;DHT22;38045;52.988;6.536;2023-08-07T03:48:01;14.10;99.90
52034;DHT22;38045;52.988;6.536;2023-08-07T03:50:26;14.00;99.90
52034;DHT22;38045;52.988;6.536;2023-08-07T03:52:52;14.00;99.90
52034;DHT22;38045;52.988;6.536;2023-08-07T03:55:18;14.10;99.90
52034;DHT22;38045;52.988;6.536;2023-08-07T03:57:44;14.00;99.90
52034;DHT22;38045;52.988;6.536;2023-08-07T04:00:10;14.00;99.90
52034;DHT22;38045;52.988;6.536;2023-08-07T04:02:35;14.10;99.90
52034;DHT22;38045;52.988;6.536;2023-08-07T04:05:01;14.20;99.90
52034;DHT22;38045;52.988;6.536;2023-08-07T04:07:27;14.20;99.90
52034;DHT22;38045;52.988;6.536;2023-08-07T04:09:53;14.30;99.90
52034;DHT22;38045;52.988;6.536;2023-08-07T04:12:19;14.30;99.90
52034;DHT22;38045;52.988;6.536;2023-08-07T04:14:45;14.40;99.90
52034;DHT22;38045;52.988;6.536;2023-08-07T04:17:11;14.40;99.90
52034;DHT22;38045;52.988;6.536;2023-08-07T04:19:37;14.50;99.90
52034;DHT22;38045;52.988;6.536;2023-08-07T04:22:02;14.40;99.90
52034;DHT22;38045;52.988;6.536;2023-08-07T04:24:28;14.50;99.90
52034;DHT22;38045;52.988;6.536;2023-08-07T04:26:53;14.40;99.90
52034;DHT22;38045;52.988;6.536;2023-08-07T04:29:19;14.40;99.90
52034;DHT22;38045;52.988;6.536;2023-08-07T04:31:45;14.40;99.90
52034;DHT22;38045;52.988;6.536;2023-08-07T04:34:10;14.50;99.90
52034;DHT22;38045;52.988;6.536;2023-08-07T04:36:37;14.50;99.90
52034;DHT22;38045;52.988;6.536;2023-08-07T04:39:03;14.40;99.90
52034;DHT22;38045;52.988;6.536;2023-08-07T04:41:29;14.40;99.90
52034;DHT22;38045;52.988;6.536;2023-08-07T04:43:54;14.40;99.90
52034;DHT22;38045;52.988;6.536;2023-08-07T04:46:20;14.40;99.90
52034;DHT22;38045;52.988;6.536;2023-08-07T04:48:45;14.40;99.90
52034;DHT22;38045;52.988;6.536;2023-08-07T04:51:12;14.40;99.90
52034;DHT22;38045;52.988;6.536;2023-08-07T04:53:38;14.40;99.90
52034;DHT22;38045;52.988;6.536;2023-08-07T04:56:04;14.40;99.90
52034;DHT22;38045;52.988;6.536;2023-08-07T04:58:30;14.40;99.90
52034;DHT22;38045;52.988;6.536;2023-08-07T05:00:56;14.40;99.90
52034;DHT22;38045;52.988;6.536;2023-08-07T05:03:22;14.40;99.90
52034;DHT22;38045;52.988;6.536;2023-08-07T05:05:47;14.40;99.90
52034;DHT22;38045;52.988;6.536;2023-08-07T05:08:13;14.40;99.90
52034;DHT22;38045;52.988;6.536;2023-08-07T05:10:38;14.50;99.90
52034;DHT22;38045;52.988;6.536;2023-08-07T05:13:04;14.50;99.90
52034;DHT22;38045;52.988;6.536;2023-08-07T05:15:29;14.50;99.90
52034;DHT22;38045;52.988;6.536;2023-08-07T05:17:56;14.50;99.90
52034;DHT22;38045;52.988;6.536;2023-08-07T05:20:22;14.50;99.90
52034;DHT22;38045;52.988;6.536;2023-08-07T05:22:48;14.50;99.90
52034;DHT22;38045;52.988;6.536;2023-08-07T05:25:14;14.50;99.90
52034;DHT22;38045;52.988;6.536;2023-08-07T05:27:47;14.50;99.90
52034;DHT22;38045;52.988;6.536;2023-08-07T05:30:13;14.50;99.90
52034;DHT22;38045;52.988;6.536;2023-08-07T05:32:39;14.50;99.90
52034;DHT22;38045;52.988;6.536;2023-08-07T05:35:06;14.60;99.90
52034;DHT22;38045;52.988;6.536;2023-08-07T05:37:33;14.60;99.90
52034;DHT22;38045;52.988;6.536;2023-08-07T05:39:58;14.60;99.90
52034;DHT22;38045;52.988;6.536;2023-08-07T05:42:24;14.60;99.90
52034;DHT22;38045;52.988;6.536;2023-08-07T05:44:50;14.60;99.90
52034;DHT22;38045;52.988;6.536;2023-08-07T05:47:15;14.60;99.90
52034;DHT22;38045;52.988;6.536;2023-08-07T05:49:41;14.50;99.90
52034;DHT22;38045;52.988;6.536;2023-08-07T05:52:07;14.50;99.90
52034;DHT22;38045;52.988;6.536;2023-08-07T05:54:33;14.40;99.90
52034;DHT22;38045;52.988;6.536;2023-08-07T05:56:58;14.40;99.90
52034;DHT22;38045;52.988;6.536;2023-08-07T05:59:24;14.40;99.90
52034;DHT22;38045;52.988;6.536;2023-08-07T06:01:50;14.40;99.90
52034;DHT22;38045;52.988;6.536;2023-08-07T06:04:16;14.50;99.90
52034;DHT22;38045;52.988;6.536;2023-08-07T06:06:42;14.60;99.90
52034;DHT22;38045;52.988;6.536;2023-08-07T06:09:08;14.70;99.90
52034;DHT22;38045;52.988;6.536;2023-08-07T06:11:34;14.70;99.90
52034;DHT22;38045;52.988;6.536;2023-08-07T06:13:59;14.80;99.90
52034;DHT22;38045;52.988;6.536;2023-08-07T06:16:25;14.70;99.90
52034;DHT22;38045;52.988;6.536;2023-08-07T06:18:51;14.70;99.90
52034;DHT22;38045;52.988;6.536;2023-08-07T06:21:17;14.80;99.90
52034;DHT22;38045;52.988;6.536;2023-08-07T06:23:42;14.80;99.90
52034;DHT22;38045;52.988;6.536;2023-08-07T06:26:08;14.90;99.90
52034;DHT22;38045;52.988;6.536;2023-08-07T06:28:34;14.90;99.90
52034;DHT22;38045;52.988;6.536;2023-08-07T06:31:09;14.90;99.90
52034;DHT22;38045;52.988;6.536;2023-08-07T06:33:36;14.90;99.90
52034;DHT22;38045;52.988;6.536;2023-08-07T06:36:03;14.90;99.90
52034;DHT22;38045;52.988;6.536;2023-08-07T06:38:29;14.90;99.90
52034;DHT22;38045;52.988;6.536;2023-08-07T06:40:55;14.90;99.90
52034;DHT22;38045;52.988;6.536;2023-08-07T06:43:21;14.80;99.90
52034;DHT22;38045;52.988;6.536;2023-08-07T06:45:49;14.90;99.90
52034;DHT22;38045;52.988;6.536;2023-08-07T06:48:15;14.90;99.90
52034;DHT22;38045;52.988;6.536;2023-08-07T06:50:40;14.90;99.90
52034;DHT22;38045;52.988;6.536;2023-08-07T06:53:06;14.90;99.90
52034;DHT22;38045;52.988;6.536;2023-08-07T06:55:32;14.90;99.90
52034;DHT22;38045;52.988;6.536;2023-08-07T06:57:58;15.00;99.90
52034;DHT22;38045;52.988;6.536;2023-08-07T07:00:24;15.00;99.90
52034;DHT22;38045;52.988;6.536;2023-08-07T07:02:50;15.00;99.90
52034;DHT22;38045;52.988;6.536;2023-08-07T07:05:15;15.00;99.90
52034;DHT22;38045;52.988;6.536;2023-08-07T07:07:41;14.90;99.90
52034;DHT22;38045;52.988;6.536;2023-08-07T07:10:07;15.00;99.90
52034;DHT22;38045;52.988;6.536;2023-08-07T07:12:33;15.00;99.90
52034;DHT22;38045;52.988;6.536;2023-08-07T07:14:58;15.10;99.90
52034;DHT22;38045;52.988;6.536;2023-08-07T07:17:24;15.10;99.90
52034;DHT22;38045;52.988;6.536;2023-08-07T07:19:50;15.30;99.90
52034;DHT22;38045;52.988;6.536;2023-08-07T07:22:15;15.30;99.90
52034;DHT22;38045;52.988;6.536;2023-08-07T07:24:41;15.30;99.90
52034;DHT22;38045;52.988;6.536;2023-08-07T07:27:07;15.20;99.90
52034;DHT22;38045;52.988;6.536;2023-08-07T07:29:32;15.20;99.90
52034;DHT22;38045;52.988;6.536;2023-08-07T07:31:58;15.20;99.90
52034;DHT22;38045;52.988;6.536;2023-08-07T07:34:24;15.20;99.90
52034;DHT22;38045;52.988;6.536;2023-08-07T07:36:50;15.20;99.90
52034;DHT22;38045;52.988;6.536;2023-08-07T07:39:16;15.30;99.90
52034;DHT22;38045;52.988;6.536;2023-08-07T07:41:42;15.30;99.90
52034;DHT22;38045;52.988;6.536;2023-08-07T07:44:08;15.30;99.90
52034;DHT22;38045;52.988;6.536;2023-08-07T07:46:33;15.40;99.90
52034;DHT22;38045;52.988;6.536;2023-08-07T07:48:59;15.50;99.90
52034;DHT22;38045;52.988;6.536;2023-08-07T07:51:25;15.50;99.90
52034;DHT22;38045;52.988;6.536;2023-08-07T07:53:51;15.50;99.90
52034;DHT22;38045;52.988;6.536;2023-08-07T07:56:16;15.40;99.90
52034;DHT22;38045;52.988;6.536;2023-08-07T07:58:42;15.40;99.90
52034;DHT22;38045;52.988;6.536;2023-08-07T08:01:09;15.30;99.90
52034;DHT22;38045;52.988;6.536;2023-08-07T08:03:35;15.10;99.90
52034;DHT22;38045;52.988;6.536;2023-08-07T08:06:01;15.10;99.90
52034;DHT22;38045;52.988;6.536;2023-08-07T08:08:27;15.10;99.90
52034;DHT22;38045;52.988;6.536;2023-08-07T08:10:52;15.20;99.90
52034;DHT22;38045;52.988;6.536;2023-08-07T08:13:18;15.40;99.90
52034;DHT22;38045;52.988;6.536;2023-08-07T08:15:44;15.40;99.90
52034;DHT22;38045;52.988;6.536;2023-08-07T08:18:11;15.40;99.90
52034;DHT22;38045;52.988;6.536;2023-08-07T08:20:37;15.30;99.90
52034;DHT22;38045;52.988;6.536;2023-08-07T08:23:03;15.20;99.90
52034;DHT22;38045;52.988;6.536;2023-08-07T08:25:29;15.00;99.90
52034;DHT22;38045;52.988;6.536;2023-08-07T08:27:54;14.80;99.90
52034;DHT22;38045;52.988;6.536;2023-08-07T08:30:21;14.70;99.90
52034;DHT22;38045;52.988;6.536;2023-08-07T08:32:46;14.70;99.90
52034;DHT22;38045;52.988;6.536;2023-08-07T08:35:12;14.70;99.90
52034;DHT22;38045;52.988;6.536;2023-08-07T08:37:38;14.70;99.90
52034;DHT22;38045;52.988;6.536;2023-08-07T08:40:04;14.70;99.90
52034;DHT22;38045;52.988;6.536;2023-08-07T08:42:32;14.80;99.90
52034;DHT22;38045;52.988;6.536;2023-08-07T08:44:59;14.90;99.90
52034;DHT22;38045;52.988;6.536;2023-08-07T08:47:28;15.00;99.90
52034;DHT22;38045;52.988;6.536;2023-08-07T08:50:11;15.10;99.90
52034;DHT22;38045;52.988;6.536;2023-08-07T08:52:40;15.40;99.90
52034;DHT22;38045;52.988;6.536;2023-08-07T08:55:06;15.60;99.90
52034;DHT22;38045;52.988;6.536;2023-08-07T08:57:33;15.60;99.90
52034;DHT22;38045;52.988;6.536;2023-08-07T09:00:00;15.70;99.90
52034;DHT22;38045;52.988;6.536;2023-08-07T09:02:27;15.80;99.90
52034;DHT22;38045;52.988;6.536;2023-08-07T09:04:53;16.10;99.90
52034;DHT22;38045;52.988;6.536;2023-08-07T09:07:19;16.20;99.90
52034;DHT22;38045;52.988;6.536;2023-08-07T09:09:46;16.30;99.90
52034;DHT22;38045;52.988;6.536;2023-08-07T09:12:26;16.40;99.90
52034;DHT22;38045;52.988;6.536;2023-08-07T09:14:58;16.50;99.90
52034;DHT22;38045;52.988;6.536;2023-08-07T09:17:26;16.50;99.90
52034;DHT22;38045;52.988;6.536;2023-08-07T09:19:53;16.50;99.90
52034;DHT22;38045;52.988;6.536;2023-08-07T09:22:19;16.60;99.90
52034;DHT22;38045;52.988;6.536;2023-08-07T09:24:45;16.70;99.90
52034;DHT22;38045;52.988;6.536;2023-08-07T09:27:12;16.80;99.90
52034;DHT22;38045;52.988;6.536;2023-08-07T09:29:41;16.70;99.90
52034;DHT22;38045;52.988;6.536;2023-08-07T09:32:09;16.80;99.90
52034;DHT22;38045;52.988;6.536;2023-08-07T09:34:34;16.80;99.90
52034;DHT22;38045;52.988;6.536;2023-08-07T09:37:01;16.80;99.90
52034;DHT22;38045;52.988;6.536;2023-08-07T09:39:27;16.90;99.90
52034;DHT22;38045;52.988;6.536;2023-08-07T09:41:53;17.00;99.90
52034;DHT22;38045;52.988;6.536;2023-08-07T09:44:19;17.00;99.90
52034;DHT22;38045;52.988;6.536;2023-08-07T09:46:44;16.90;99.90
52034;DHT22;38045;52.988;6.536;2023-08-07T09:49:10;16.80;99.90
52034;DHT22;38045;52.988;6.536;2023-08-07T09:51:44;16.80;99.90
52034;DHT22;38045;52.988;6.536;2023-08-07T09:54:10;16.70;99.90
52034;DHT22;38045;52.988;6.536;2023-08-07T09:56:36;16.60;99.90
52034;DHT22;38045;52.988;6.536;2023-08-07T09:59:01;16.50;99.90
52034;DHT22;38045;52.988;6.536;2023-08-07T10:01:27;16.60;99.90
52034;DHT22;38045;52.988;6.536;2023-08-07T10:03:53;16.70;99.90
52034;DHT22;38045;52.988;6.536;2023-08-07T10:06:19;16.90;99.90
52034;DHT22;38045;52.988;6.536;2023-08-07T10:08:45;17.20;99.90
52034;DHT22;38045;52.988;6.536;2023-08-07T10:11:11;17.50;99.90
52034;DHT22;38045;52.988;6.536;2023-08-07T10:13:40;17.50;99.90
52034;DHT22;38045;52.988;6.536;2023-08-07T10:16:06;17.70;99.90
52034;DHT22;38045;52.988;6.536;2023-08-07T10:18:32;17.60;99.90
52034;DHT22;38045;52.988;6.536;2023-08-07T10:21:01;17.50;99.90
52034;DHT22;38045;52.988;6.536;2023-08-07T10:23:27;17.30;99.90
52034;DHT22;38045;52.988;6.536;2023-08-07T10:25:53;17.20;99.90
52034;DHT22;38045;52.988;6.536;2023-08-07T10:28:20;17.10;99.90
52034;DHT22;38045;52.988;6.536;2023-08-07T10:30:48;17.10;99.90
52034;DHT22;38045;52.988;6.536;2023-08-07T10:33:15;17.00;99.90
52034;DHT22;38045;52.988;6.536;2023-08-07T10:35:47;17.00;99.90
52034;DHT22;38045;52.988;6.536;2023-08-07T10:38:14;17.10;99.90
52034;DHT22;38045;52.988;6.536;2023-08-07T10:41:13;17.20;99.90
52034;DHT22;38045;52.988;6.536;2023-08-07T10:43:43;17.20;99.90
52034;DHT22;38045;52.988;6.536;2023-08-07T10:46:11;17.20;99.90
52034;DHT22;38045;52.988;6.536;2023-08-07T10:48:47;17.10;99.90
52034;DHT22;38045;52.988;6.536;2023-08-07T10:51:18;17.00;99.90
52034;DHT22;38045;52.988;6.536;2023-08-07T10:53:47;16.90;99.90
52034;DHT22;38045;52.988;6.536;2023-08-07T10:56:17;16.80;99.90
52034;DHT22;38045;52.988;6.536;2023-08-07T10:58:49;16.70;99.90
52034;DHT22;38045;52.988;6.536;2023-08-07T11:01:17;16.60;99.90
52034;DHT22;38045;52.988;6.536;2023-08-07T11:03:55;16.70;99.90
52034;DHT22;38045;52.988;6.536;2023-08-07T11:06:23;16.80;99.90
52034;DHT22;38045;52.988;6.536;2023-08-07T11:08:50;17.10;99.90
52034;DHT22;38045;52.988;6.536;2023-08-07T11:11:16;17.40;99.90
52034;DHT22;38045;52.988;6.536;2023-08-07T11:13:42;17.60;99.90
52034;DHT22;38045;52.988;6.536;2023-08-07T11:16:07;17.50;99.90
52034;DHT22;38045;52.988;6.536;2023-08-07T11:18:34;17.50;99.90
52034;DHT22;38045;52.988;6.536;2023-08-07T11:21:01;17.40;99.90
52034;DHT22;38045;52.988;6.536;2023-08-07T11:23:27;17.40;99.90
52034;DHT22;38045;52.988;6.536;2023-08-07T11:25:54;17.50;99.90
52034;DHT22;38045;52.988;6.536;2023-08-07T11:28:20;17.50;99.90
52034;DHT22;38045;52.988;6.536;2023-08-07T11:30:49;17.40;99.90
52034;DHT22;38045;52.988;6.536;2023-08-07T11:33:15;17.40;99.90
52034;DHT22;38045;52.988;6.536;2023-08-07T11:35:42;17.50;99.90
52034;DHT22;38045;52.988;6.536;2023-08-07T11:38:08;17.80;99.90
52034;DHT22;38045;52.988;6.536;2023-08-07T11:40:34;18.10;99.90
52034;DHT22;38045;52.988;6.536;2023-08-07T11:43:00;18.20;99.90
52034;DHT22;38045;52.988;6.536;2023-08-07T11:45:25;18.20;99.90
52034;DHT22;38045;52.988;6.536;2023-08-07T11:47:52;18.10;99.90
52034;DHT22;38045;52.988;6.536;2023-08-07T11:50:17;18.10;99.90
52034;DHT22;38045;52.988;6.536;2023-08-07T11:52:43;18.10;99.90
52034;DHT22;38045;52.988;6.536;2023-08-07T11:55:09;18.00;99.90
52034;DHT22;38045;52.988;6.536;2023-08-07T11:57:38;18.00;99.90
52034;DHT22;38045;52.988;6.536;2023-08-07T12:00:07;18.00;99.90
52034;DHT22;38045;52.988;6.536;2023-08-07T12:02:41;18.00;99.90
52034;DHT22;38045;52.988;6.536;2023-08-07T12:05:11;18.00;99.90
52034;DHT22;38045;52.988;6.536;2023-08-07T12:07:37;18.00;99.90
52034;DHT22;38045;52.988;6.536;2023-08-07T12:10:08;18.10;99.90
52034;DHT22;38045;52.988;6.536;2023-08-07T12:12:38;18.00;99.90
52034;DHT22;38045;52.988;6.536;2023-08-07T12:15:10;18.00;99.90
52034;DHT22;38045;52.988;6.536;2023-08-07T12:17:38;18.00;99.90
52034;DHT22;38045;52.988;6.536;2023-08-07T12:20:05;17.80;99.90
52034;DHT22;38045;52.988;6.536;2023-08-07T12:22:36;17.60;99.90
52034;DHT22;38045;52.988;6.536;2023-08-07T12:25:01;17.20;99.90
52034;DHT22;38045;52.988;6.536;2023-08-07T12:27:27;16.90;99.90
52034;DHT22;38045;52.988;6.536;2023-08-07T12:29:53;16.50;99.90
52034;DHT22;38045;52.988;6.536;2023-08-07T12:32:19;16.40;99.90
52034;DHT22;38045;52.988;6.536;2023-08-07T12:34:44;16.40;99.90
52034;DHT22;38045;52.988;6.536;2023-08-07T12:37:10;16.30;99.90
52034;DHT22;38045;52.988;6.536;2023-08-07T12:39:35;16.40;99.90
52034;DHT22;38045;52.988;6.536;2023-08-07T12:42:01;16.60;99.90
52034;DHT22;38045;52.988;6.536;2023-08-07T12:44:29;16.80;99.90
52034;DHT22;38045;52.988;6.536;2023-08-07T12:46:54;16.80;99.90
52034;DHT22;38045;52.988;6.536;2023-08-07T12:49:20;16.90;99.90
52034;DHT22;38045;52.988;6.536;2023-08-07T12:51:45;16.90;99.90
52034;DHT22;38045;52.988;6.536;2023-08-07T12:54:11;16.90;99.90
52034;DHT22;38045;52.988;6.536;2023-08-07T12:56:37;16.90;99.90
52034;DHT22;38045;52.988;6.536;2023-08-07T12:59:02;17.00;99.90
52034;DHT22;38045;52.988;6.536;2023-08-07T13:01:28;17.20;99.90
52034;DHT22;38045;52.988;6.536;2023-08-07T13:03:53;17.20;99.90
52034;DHT22;38045;52.988;6.536;2023-08-07T13:06:20;17.30;99.90
52034;DHT22;38045;52.988;6.536;2023-08-07T13:08:45;17.60;99.90
52034;DHT22;38045;52.988;6.536;2023-08-07T13:11:11;17.90;99.90
52034;DHT22;38045;52.988;6.536;2023-08-07T13:13:37;18.10;99.90
52034;DHT22;38045;52.988;6.536;2023-08-07T13:16:04;18.10;99.90
52034;DHT22;38045;52.988;6.536;2023-08-07T13:18:29;18.00;99.90
52034;DHT22;38045;52.988;6.536;2023-08-07T13:20:55;18.10;99.90
52034;DHT22;38045;52.988;6.536;2023-08-07T13:23:22;18.00;99.90
52034;DHT22;38045;52.988;6.536;2023-08-07T13:25:47;18.00;99.90
52034;DHT22;38045;52.988;6.536;2023-08-07T13:28:13;18.00;99.90
52034;DHT22;38045;52.988;6.536;2023-08-07T13:30:39;18.10;99.90
52034;DHT22;38045;52.988;6.536;2023-08-07T13:33:05;18.30;99.90
52034;DHT22;38045;52.988;6.536;2023-08-07T13:35:30;18.30;99.90
52034;DHT22;38045;52.988;6.536;2023-08-07T13:37:58;18.30;99.90
52034;DHT22;38045;52.988;6.536;2023-08-07T13:40:23;18.10;99.90
52034;DHT22;38045;52.988;6.536;2023-08-07T13:42:49;18.20;99.90
52034;DHT22;38045;52.988;6.536;2023-08-07T13:45:15;18.30;99.90
52034;DHT22;38045;52.988;6.536;2023-08-07T13:47:40;18.50;99.90
52034;DHT22;38045;52.988;6.536;2023-08-07T13:50:06;18.60;99.90
52034;DHT22;38045;52.988;6.536;2023-08-07T13:52:33;18.70;99.90
52034;DHT22;38045;52.988;6.536;2023-08-07T13:54:59;18.80;99.90
52034;DHT22;38045;52.988;6.536;2023-08-07T13:57:25;18.70;99.90
52034;DHT22;38045;52.988;6.536;2023-08-07T13:59:50;18.70;99.90
52034;DHT22;38045;52.988;6.536;2023-08-07T14:02:16;18.60;99.90
52034;DHT22;38045;52.988;6.536;2023-08-07T14:04:42;18.60;99.90
52034;DHT22;38045;52.988;6.536;2023-08-07T14:07:11;18.50;99.90
52034;DHT22;38045;52.988;6.536;2023-08-07T14:09:37;18.30;99.90
52034;DHT22;38045;52.988;6.536;2023-08-07T14:12:03;18.40;99.90
52034;DHT22;38045;52.988;6.536;2023-08-07T14:14:29;18.40;99.90
52034;DHT22;38045;52.988;6.536;2023-08-07T14:16:55;18.50;99.90
52034;DHT22;38045;52.988;6.536;2023-08-07T14:19:23;18.60;99.90
52034;DHT22;38045;52.988;6.536;2023-08-07T14:21:49;18.70;99.90
52034;DHT22;38045;52.988;6.536;2023-08-07T14:24:15;18.80;99.90
52034;DHT22;38045;52.988;6.536;2023-08-07T14:26:42;18.80;99.90
52034;DHT22;38045;52.988;6.536;2023-08-07T14:29:08;18.70;99.90
52034;DHT22;38045;52.988;6.536;2023-08-07T14:31:33;18.70;99.90
52034;DHT22;38045;52.988;6.536;2023-08-07T14:33:59;18.60;99.90
52034;DHT22;38045;52.988;6.536;2023-08-07T14:36:25;18.40;99.90
52034;DHT22;38045;52.988;6.536;2023-08-07T14:38:50;18.30;99.90
52034;DHT22;38045;52.988;6.536;2023-08-07T14:41:17;18.20;99.90
52034;DHT22;38045;52.988;6.536;2023-08-07T14:43:44;18.10;99.90
52034;DHT22;38045;52.988;6.536;2023-08-07T14:46:11;18.00;99.90
52034;DHT22;38045;52.988;6.536;2023-08-07T14:48:36;18.00;99.90
52034;DHT22;38045;52.988;6.536;2023-08-07T14:51:02;17.90;99.90
52034;DHT22;38045;52.988;6.536;2023-08-07T14:53:28;18.10;99.90
52034;DHT22;38045;52.988;6.536;2023-08-07T14:55:54;18.30;99.90
52034;DHT22;38045;52.988;6.536;2023-08-07T14:58:19;18.50;99.90
52034;DHT22;38045;52.988;6.536;2023-08-07T15:00:45;18.60;99.90
52034;DHT22;38045;52.988;6.536;2023-08-07T15:03:11;18.50;99.90
52034;DHT22;38045;52.988;6.536;2023-08-07T15:05:37;18.30;99.90
52034;DHT22;38045;52.988;6.536;2023-08-07T15:08:03;18.30;99.90
52034;DHT22;38045;52.988;6.536;2023-08-07T15:10:29;18.40;99.90
52034;DHT22;38045;52.988;6.536;2023-08-07T15:12:55;18.50;99.90
52034;DHT22;38045;52.988;6.536;2023-08-07T15:15:24;18.60;99.90
52034;DHT22;38045;52.988;6.536;2023-08-07T15:17:49;18.50;99.90
52034;DHT22;38045;52.988;6.536;2023-08-07T15:20:15;18.40;99.90
52034;DHT22;38045;52.988;6.536;2023-08-07T15:22:40;18.40;99.90
52034;DHT22;38045;52.988;6.536;2023-08-07T15:25:07;18.40;99.90
52034;DHT22;38045;52.988;6.536;2023-08-07T15:27:32;18.50;99.90
52034;DHT22;38045;52.988;6.536;2023-08-07T15:29:58;18.40;99.90